Saturday, May 26, 2018, 2:30 AM EDT
Back to Local

K1P1, Plymouth, Plymouth Municipal Airport

Location: Plymouth, NH, United States Lat: 43.779
Local Time: 2:30 AM EDT ( 6:30 GMT) Lon: -71.754
Time Zone: US/Eastern Elev: 505 ft

Show me the last for .
Show Decoded

2018-05-26 02:15 METAR K1P1 260615Z AUTO 00000KT 10SM SCT085 SCT110 16/15 A2971 RMK AO2 T01610147
                 =
2018-05-26 01:55 METAR K1P1 260555Z AUTO 00000KT 10SM SCT100 17/15 A2971 RMK AO2 T01670149 10245
                 20167 =
2018-05-26 01:35 METAR K1P1 260535Z AUTO 00000KT 10SM OVC100 17/15 A2971 RMK AO2 T01740151 =
2018-05-26 01:15 METAR K1P1 260515Z AUTO 00000KT 10SM OVC090 18/15 A2971 RMK AO2 T01750151 =
2018-05-26 00:55 METAR K1P1 260455Z AUTO 00000KT 10SM SCT070 OVC090 18/15 A2971 RMK AO2 T01770150
                 =
2018-05-26 00:35 METAR K1P1 260435Z AUTO 00000KT 10SM BKN070 OVC090 18/15 A2971 RMK AO2 T01800151
                 =
2018-05-26 00:15 METAR K1P1 260415Z AUTO 00000KT 7SM SCT080 OVC090 18/15 A2972 RMK AO2 T01830151
                 =
2018-05-25 23:55 METAR K1P1 260355Z AUTO 00000KT 10SM BKN080 OVC090 19/15 A2973 RMK AO2 T01850147
                 402930041 =
2018-05-25 23:35 METAR K1P1 260335Z AUTO 00000KT 10SM SCT075 OVC090 20/14 A2973 RMK AO2 T01960140
                 =
2018-05-25 23:15 METAR K1P1 260315Z AUTO 00000KT 10SM OVC080 20/14 A2973 RMK AO2 T02000137 =
2018-05-25 22:55 METAR K1P1 260255Z AUTO 00000KT 10SM BKN070 OVC090 21/13 A2972 RMK AO2 T02080132
                 =
2018-05-25 22:35 METAR K1P1 260235Z AUTO 00000KT 10SM BKN070 OVC085 22/12 A2973 RMK AO2 T02180124
                 =
2018-05-25 22:15 METAR K1P1 260215Z AUTO 00000KT 10SM SCT070 OVC100 22/12 A2973 RMK AO2 T02230122
                 =
2018-05-25 21:55 METAR K1P1 260155Z AUTO 00000KT 10SM BKN070 BKN085 OVC110 23/12 A2974 RMK AO2
                 T02320117 =
2018-05-25 21:35 METAR K1P1 260135Z AUTO 00000KT 10SM OVC060 24/12 A2974 RMK AO2 T02350116 =
2018-05-25 21:15 METAR K1P1 260115Z AUTO 29004KT 10SM BKN070 BKN090 OVC110 24/11 A2974 RMK AO2
                 T02400112 =
2018-05-25 20:55 METAR K1P1 260055Z AUTO 28007KT 10SM SCT070 OVC110 24/11 A2974 RMK AO2 T02400110
                 =
2018-05-25 20:35 METAR K1P1 260035Z AUTO 00000KT 10SM OVC075 23/12 A2974 RMK AO2 T02250124 =
2018-05-25 20:15 METAR K1P1 260015Z AUTO 00000KT 10SM OVC075 23/12 A2973 RMK AO2 T02330115 =
2018-05-25 19:55 METAR K1P1 252355Z AUTO 00000KT 10SM OVC075 25/10 A2972 RMK AO2 T02450101 10293
                 20245 =
2018-05-25 19:35 METAR K1P1 252335Z AUTO 00000KT 10SM OVC075 25/10 A2972 RMK AO2 T02530095 =
2018-05-25 19:15 METAR K1P1 252315Z AUTO 00000KT 10SM OVC075 25/10 A2972 RMK AO2 T02520098 =
2018-05-25 18:55 METAR K1P1 252255Z AUTO 28005KT 10SM BKN075 BKN090 26/09 A2972 RMK AO2 T02600092
                 =
2018-05-25 18:35 METAR K1P1 252235Z AUTO 00000KT 10SM BKN075 26/09 A2972 RMK AO2 T02600092 =
2018-05-25 18:15 METAR K1P1 252215Z AUTO 28006KT 10SM OVC075 26/08 A2972 RMK AO2 T02630084 =
2018-05-25 17:55 METAR K1P1 252155Z AUTO 00000KT 10SM OVC085 26/08 A2971 RMK AO2 T02610084 =
2018-05-25 17:35 METAR K1P1 252135Z AUTO 00000KT 10SM OVC085 26/08 A2971 RMK AO2 T02640083 =
2018-05-25 17:15 METAR K1P1 252115Z AUTO 27003KT 10SM OVC085 27/08 A2971 RMK AO2 T02680077 =
2018-05-25 16:55 METAR K1P1 252055Z AUTO 23003KT 10SM OVC085 27/08 A2971 RMK AO2 T02690079 =
2018-05-25 16:35 METAR K1P1 252035Z AUTO 00000KT 10SM OVC085 27/08 A2972 RMK AO2 T02730082 =
2018-05-25 16:15 METAR K1P1 252015Z AUTO 25008G16KT 10SM OVC085 28/08 A2972 RMK AO2 T02750081 =
2018-05-25 15:55 METAR K1P1 251955Z AUTO 27007KT 220V300 10SM OVC085 28/09 A2972 RMK AO2
                 T02810087 =
2018-05-25 15:35 METAR K1P1 251935Z AUTO 25006KT 200V300 10SM OVC085 28/08 A2972 RMK AO2
                 T02750083 =
2018-05-25 15:15 METAR K1P1 251915Z AUTO 24003KT 10SM OVC085 27/08 A2973 RMK AO2 T02730081 =
2018-05-25 14:55 METAR K1P1 251855Z AUTO 26005KT 10SM BKN085 27/08 A2974 RMK AO2 T02740081 =
2018-05-25 14:35 METAR K1P1 251835Z AUTO 25008G19KT 210V340 10SM CLR 29/08 A2974 RMK AO2
                 T02920081 =
2018-05-25 13:15 METAR K1P1 251715Z AUTO 25009G18KT 220V280 10SM SCT110 28/07 A2976 RMK AO2
                 T02810073 =
2018-05-25 12:55 METAR K1P1 251655Z AUTO 23007G17KT 10SM SCT080 29/07 A2977 RMK AO2 T02870072 =
2018-05-25 12:35 METAR K1P1 251635Z AUTO 28013G22KT 10SM SCT080 28/07 A2978 RMK AO2 T02830070 =
2018-05-25 12:15 METAR K1P1 251615Z AUTO 27011G18KT 240V300 10SM CLR 28/07 A2979 RMK AO2
                 T02790074 =
2018-05-25 11:55 METAR K1P1 251555Z AUTO 28010G17KT 10SM CLR 28/07 A2980 RMK AO2 T02750074 =
2018-05-25 11:35 METAR K1P1 251535Z AUTO 28010G17KT 240V310 10SM CLR 27/08 A2981 RMK AO2
                 T02690080 =
2018-05-25 11:15 METAR K1P1 251515Z AUTO 27013G21KT 10SM CLR 27/07 A2982 RMK AO2 T02650073 =
2018-05-25 10:55 METAR K1P1 251455Z AUTO 28015G22KT 250V310 10SM CLR 26/08 A2983 RMK AO2
                 T02600076 =
2018-05-25 10:35 METAR K1P1 251435Z AUTO 28007G14KT 10SM CLR 25/09 A2983 RMK AO2 T02530085 =
2018-05-25 10:15 METAR K1P1 251415Z AUTO 31005KT 10SM CLR 24/09 A2984 RMK AO2 T02430092 =
2018-05-25 09:55 METAR K1P1 251355Z AUTO 29004KT 10SM CLR 24/09 A2986 RMK AO2 T02350093 =
2018-05-25 09:35 METAR K1P1 251335Z AUTO 30006KT 10SM CLR 22/10 A2987 RMK AO2 T02240095 =
2018-05-25 09:15 METAR K1P1 251315Z AUTO 31006KT 10SM CLR 21/09 A2987 RMK AO2 T02100094 =
2018-05-25 08:55 METAR K1P1 251255Z AUTO 31005KT 10SM CLR 17/11 A2988 RMK AO2 T01740108 =
2018-05-25 08:35 METAR K1P1 251235Z AUTO 00000KT 10SM CLR 14/10 A2989 RMK AO2 T01390095 =
2018-05-25 08:15 METAR K1P1 251215Z AUTO 00000KT 10SM CLR 12/09 A2989 RMK AO2 T01190093 =
2018-05-25 07:55 METAR K1P1 251155Z AUTO 00000KT 10SM CLR 10/08 A2990 RMK AO2 T01010080 10101
                 20041 =
2018-05-25 07:35 METAR K1P1 251135Z AUTO 00000KT 10SM CLR 09/08 A2990 RMK AO2 T00880076 =
2018-05-25 07:15 METAR K1P1 251115Z AUTO 00000KT 10SM CLR 08/07 A2991 RMK AO2 T00780073 =
2018-05-25 06:55 METAR K1P1 251055Z AUTO 00000KT 10SM CLR 07/07 A2991 RMK AO2 T00710067 =
2018-05-25 06:35 METAR K1P1 251035Z AUTO 00000KT 10SM CLR 06/06 A2992 RMK AO2 T00620060 =
2018-05-25 06:15 METAR K1P1 251015Z AUTO 00000KT 10SM CLR 05/05 A2992 RMK AO2 T00510048 =
2018-05-25 05:55 METAR K1P1 250955Z AUTO 00000KT 10SM CLR 05/04 A2992 RMK AO2 T00450042 =
2018-05-25 05:35 METAR K1P1 250935Z AUTO 00000KT 7SM CLR 04/04 A2992 RMK AO2 T00420040 =
2018-05-25 05:15 METAR K1P1 250915Z AUTO 00000KT 7SM CLR 04/04 A2992 RMK AO2 T00410038 =
2018-05-25 04:55 METAR K1P1 250855Z AUTO 00000KT 7SM CLR 05/05 A2993 RMK AO2 T00490045 =
2018-05-25 04:35 METAR K1P1 250835Z AUTO 00000KT 7SM CLR 05/05 A2993 RMK AO2 T00480045 =
2018-05-25 04:15 METAR K1P1 250815Z AUTO 00000KT 7SM CLR 05/04 A2993 RMK AO2 T00480044 =
2018-05-25 03:55 METAR K1P1 250755Z AUTO 00000KT 5SM BR CLR 05/05 A2994 RMK AO2 T00500046 =
2018-05-25 03:35 METAR K1P1 250735Z AUTO 00000KT 10SM CLR 05/05 A2994 RMK AO2 T00510047 =
2018-05-25 03:15 METAR K1P1 250715Z AUTO 00000KT 7SM CLR 06/05 A2995 RMK AO2 T00550050 =
2018-05-25 02:55 METAR K1P1 250655Z AUTO 00000KT 10SM CLR 06/05 A2995 RMK AO2 T00580053 =
2018-05-25 02:35 METAR K1P1 250635Z AUTO 00000KT 10SM CLR 06/06 A2996 RMK AO2 T00610056 =

Support USWX by starting your Amazon purchase here.